sensor_id;sensor_type;location;lat;lon;timestamp;temperature;humidity
49679;DHT22;35570;48.218;16.326;2024-03-02T00:03:48;8.60;99.90
49679;DHT22;35570;48.218;16.326;2024-03-02T00:08:59;8.60;99.90
49679;DHT22;35570;48.218;16.326;2024-03-02T00:11:26;8.60;99.90
49679;DHT22;35570;48.218;16.326;2024-03-02T00:13:54;8.60;99.90
49679;DHT22;35570;48.218;16.326;2024-03-02T00:16:19;8.60;99.90
49679;DHT22;35570;48.218;16.326;2024-03-02T00:18:45;8.60;99.90
49679;DHT22;35570;48.218;16.326;2024-03-02T00:21:13;8.60;99.90
49679;DHT22;35570;48.218;16.326;2024-03-02T00:23:45;8.60;99.90
49679;DHT22;35570;48.218;16.326;2024-03-02T00:26:23;8.60;99.90
49679;DHT22;35570;48.218;16.326;2024-03-02T00:28:56;8.60;99.90
49679;DHT22;35570;48.218;16.326;2024-03-02T00:31:32;8.60;99.90
49679;DHT22;35570;48.218;16.326;2024-03-02T00:34:02;8.50;99.90
49679;DHT22;35570;48.218;16.326;2024-03-02T00:36:48;8.50;99.90
49679;DHT22;35570;48.218;16.326;2024-03-02T00:39:15;8.50;99.90
49679;DHT22;35570;48.218;16.326;2024-03-02T00:41:42;8.50;99.90
49679;DHT22;35570;48.218;16.326;2024-03-02T00:44:16;8.40;99.90
49679;DHT22;35570;48.218;16.326;2024-03-02T00:46:49;8.40;99.90
49679;DHT22;35570;48.218;16.326;2024-03-02T00:52:38;8.40;99.90
49679;DHT22;35570;48.218;16.326;2024-03-02T00:55:30;8.30;99.90
49679;DHT22;35570;48.218;16.326;2024-03-02T00:58:08;8.30;99.90
49679;DHT22;35570;48.218;16.326;2024-03-02T01:00:34;8.30;99.90
49679;DHT22;35570;48.218;16.326;2024-03-02T01:03:18;8.30;99.90
49679;DHT22;35570;48.218;16.326;2024-03-02T01:09:08;8.30;99.90
49679;DHT22;35570;48.218;16.326;2024-03-02T01:11:45;8.30;99.90
49679;DHT22;35570;48.218;16.326;2024-03-02T01:17:19;8.30;99.90
49679;DHT22;35570;48.218;16.326;2024-03-02T01:19:45;8.30;99.90
49679;DHT22;35570;48.218;16.326;2024-03-02T01:22:16;8.20;99.90
49679;DHT22;35570;48.218;16.326;2024-03-02T01:31:11;8.20;99.90
49679;DHT22;35570;48.218;16.326;2024-03-02T01:37:20;8.20;99.90
49679;DHT22;35570;48.218;16.326;2024-03-02T01:39:48;8.20;99.90
49679;DHT22;35570;48.218;16.326;2024-03-02T01:42:14;8.20;99.90
49679;DHT22;35570;48.218;16.326;2024-03-02T01:44:41;8.10;99.90
49679;DHT22;35570;48.218;16.326;2024-03-02T01:47:14;8.20;99.90
49679;DHT22;35570;48.218;16.326;2024-03-02T01:49:39;8.10;99.90
49679;DHT22;35570;48.218;16.326;2024-03-02T01:52:08;8.10;99.90
49679;DHT22;35570;48.218;16.326;2024-03-02T01:54:35;8.10;99.90
49679;DHT22;35570;48.218;16.326;2024-03-02T01:57:02;8.10;99.90
49679;DHT22;35570;48.218;16.326;2024-03-02T01:59:36;8.10;99.90
49679;DHT22;35570;48.218;16.326;2024-03-02T02:02:02;8.20;99.90
49679;DHT22;35570;48.218;16.326;2024-03-02T02:04:33;8.10;99.90
49679;DHT22;35570;48.218;16.326;2024-03-02T02:06:59;8.20;99.90
49679;DHT22;35570;48.218;16.326;2024-03-02T02:09:27;8.20;99.90
49679;DHT22;35570;48.218;16.326;2024-03-02T02:12:10;8.20;99.90
49679;DHT22;35570;48.218;16.326;2024-03-02T02:14:36;8.20;99.90
49679;DHT22;35570;48.218;16.326;2024-03-02T02:17:03;8.20;99.90
49679;DHT22;35570;48.218;16.326;2024-03-02T02:19:31;8.20;99.90
49679;DHT22;35570;48.218;16.326;2024-03-02T02:21:59;8.20;99.90
49679;DHT22;35570;48.218;16.326;2024-03-02T02:24:24;8.20;99.90
49679;DHT22;35570;48.218;16.326;2024-03-02T02:26:51;8.20;99.90
49679;DHT22;35570;48.218;16.326;2024-03-02T02:29:53;8.20;99.90
49679;DHT22;35570;48.218;16.326;2024-03-02T02:32:19;8.20;99.90
49679;DHT22;35570;48.218;16.326;2024-03-02T02:34:45;8.20;99.90
49679;DHT22;35570;48.218;16.326;2024-03-02T02:37:11;8.10;99.90
49679;DHT22;35570;48.218;16.326;2024-03-02T02:39:38;8.10;99.90
49679;DHT22;35570;48.218;16.326;2024-03-02T02:42:06;8.10;99.90
49679;DHT22;35570;48.218;16.326;2024-03-02T02:44:32;8.10;99.90
49679;DHT22;35570;48.218;16.326;2024-03-02T02:46:59;8.10;99.90
49679;DHT22;35570;48.218;16.326;2024-03-02T02:49:26;8.10;99.90
49679;DHT22;35570;48.218;16.326;2024-03-02T02:51:52;8.00;99.90
49679;DHT22;35570;48.218;16.326;2024-03-02T02:54:30;8.00;99.90
49679;DHT22;35570;48.218;16.326;2024-03-02T02:57:08;8.00;99.90
49679;DHT22;35570;48.218;16.326;2024-03-02T02:59:35;8.00;99.90
49679;DHT22;35570;48.218;16.326;2024-03-02T03:02:09;8.00;99.90
49679;DHT22;35570;48.218;16.326;2024-03-02T03:04:35;8.00;99.90
49679;DHT22;35570;48.218;16.326;2024-03-02T03:07:05;7.90;99.90
49679;DHT22;35570;48.218;16.326;2024-03-02T03:09:37;7.90;99.90
49679;DHT22;35570;48.218;16.326;2024-03-02T03:15:32;7.90;99.90
49679;DHT22;35570;48.218;16.326;2024-03-02T03:18:05;7.90;99.90
49679;DHT22;35570;48.218;16.326;2024-03-02T03:23:58;7.90;99.90
49679;DHT22;35570;48.218;16.326;2024-03-02T03:26:28;7.90;99.90
49679;DHT22;35570;48.218;16.326;2024-03-02T03:28:54;7.90;99.90
49679;DHT22;35570;48.218;16.326;2024-03-02T03:31:19;7.80;99.90
49679;DHT22;35570;48.218;16.326;2024-03-02T03:33:46;7.80;99.90
49679;DHT22;35570;48.218;16.326;2024-03-02T03:36:29;7.80;99.90
49679;DHT22;35570;48.218;16.326;2024-03-02T03:39:18;7.80;99.90
49679;DHT22;35570;48.218;16.326;2024-03-02T03:41:50;7.70;99.90
49679;DHT22;35570;48.218;16.326;2024-03-02T03:44:28;7.70;99.90
49679;DHT22;35570;48.218;16.326;2024-03-02T03:46:54;7.70;99.90
49679;DHT22;35570;48.218;16.326;2024-03-02T03:49:27;7.70;99.90
49679;DHT22;35570;48.218;16.326;2024-03-02T03:51:54;7.60;99.90
49679;DHT22;35570;48.218;16.326;2024-03-02T03:57:30;7.60;99.90
49679;DHT22;35570;48.218;16.326;2024-03-02T04:00:15;7.70;99.90
49679;DHT22;35570;48.218;16.326;2024-03-02T04:02:46;7.70;99.90
49679;DHT22;35570;48.218;16.326;2024-03-02T04:08:28;7.70;99.90
49679;DHT22;35570;48.218;16.326;2024-03-02T04:13:58;7.60;99.90
49679;DHT22;35570;48.218;16.326;2024-03-02T04:16:23;7.60;99.90
49679;DHT22;35570;48.218;16.326;2024-03-02T04:22:12;7.60;99.90
49679;DHT22;35570;48.218;16.326;2024-03-02T04:24:37;7.60;99.90
49679;DHT22;35570;48.218;16.326;2024-03-02T04:27:21;7.60;99.90
49679;DHT22;35570;48.218;16.326;2024-03-02T04:30:22;7.60;99.90
49679;DHT22;35570;48.218;16.326;2024-03-02T04:35:36;8.20;99.90
49679;DHT22;35570;48.218;16.326;2024-03-02T04:38:02;7.50;99.90
49679;DHT22;35570;48.218;16.326;2024-03-02T04:40:44;7.50;99.90
49679;DHT22;35570;48.218;16.326;2024-03-02T04:43:12;7.50;99.90
49679;DHT22;35570;48.218;16.326;2024-03-02T04:45:49;7.50;99.90
49679;DHT22;35570;48.218;16.326;2024-03-02T04:48:14;7.50;99.90
49679;DHT22;35570;48.218;16.326;2024-03-02T04:50:40;7.50;99.90
49679;DHT22;35570;48.218;16.326;2024-03-02T04:53:06;7.50;99.90
49679;DHT22;35570;48.218;16.326;2024-03-02T04:55:33;7.50;99.90
49679;DHT22;35570;48.218;16.326;2024-03-02T04:58:00;7.50;99.90
49679;DHT22;35570;48.218;16.326;2024-03-02T05:00:34;7.50;99.90
49679;DHT22;35570;48.218;16.326;2024-03-02T05:03:00;7.50;99.90
49679;DHT22;35570;48.218;16.326;2024-03-02T05:05:26;7.50;99.90
49679;DHT22;35570;48.218;16.326;2024-03-02T05:07:54;7.40;99.90
49679;DHT22;35570;48.218;16.326;2024-03-02T05:10:20;7.50;99.90
49679;DHT22;35570;48.218;16.326;2024-03-02T05:12:45;7.40;99.90
49679;DHT22;35570;48.218;16.326;2024-03-02T05:15:13;7.40;99.90
49679;DHT22;35570;48.218;16.326;2024-03-02T05:17:45;7.30;99.90
49679;DHT22;35570;48.218;16.326;2024-03-02T05:20:12;7.30;99.90
49679;DHT22;35570;48.218;16.326;2024-03-02T05:22:38;7.30;99.90
49679;DHT22;35570;48.218;16.326;2024-03-02T05:25:05;7.30;99.90
49679;DHT22;35570;48.218;16.326;2024-03-02T05:27:33;7.30;99.90
49679;DHT22;35570;48.218;16.326;2024-03-02T05:30:00;7.30;99.90
49679;DHT22;35570;48.218;16.326;2024-03-02T05:32:26;7.40;99.90
49679;DHT22;35570;48.218;16.326;2024-03-02T05:34:57;7.40;99.90
49679;DHT22;35570;48.218;16.326;2024-03-02T05:37:29;7.40;99.90
49679;DHT22;35570;48.218;16.326;2024-03-02T05:39:54;7.50;99.90
49679;DHT22;35570;48.218;16.326;2024-03-02T05:42:21;7.50;99.90
49679;DHT22;35570;48.218;16.326;2024-03-02T05:44:47;7.40;99.90
49679;DHT22;35570;48.218;16.326;2024-03-02T05:47:13;7.40;99.90
49679;DHT22;35570;48.218;16.326;2024-03-02T05:49:38;7.50;99.90
49679;DHT22;35570;48.218;16.326;2024-03-02T05:52:04;7.40;99.90
49679;DHT22;35570;48.218;16.326;2024-03-02T05:54:30;7.40;99.90
49679;DHT22;35570;48.218;16.326;2024-03-02T05:56:56;7.40;99.90
49679;DHT22;35570;48.218;16.326;2024-03-02T05:59:22;7.40;99.90
49679;DHT22;35570;48.218;16.326;2024-03-02T06:01:52;7.40;99.90
49679;DHT22;35570;48.218;16.326;2024-03-02T06:04:19;7.50;99.90
49679;DHT22;35570;48.218;16.326;2024-03-02T06:06:50;7.60;99.90
49679;DHT22;35570;48.218;16.326;2024-03-02T06:09:34;7.70;99.90
49679;DHT22;35570;48.218;16.326;2024-03-02T06:12:01;7.70;99.90
49679;DHT22;35570;48.218;16.326;2024-03-02T06:14:26;7.70;99.90
49679;DHT22;35570;48.218;16.326;2024-03-02T06:16:52;7.70;99.90
49679;DHT22;35570;48.218;16.326;2024-03-02T06:19:20;7.70;99.90
49679;DHT22;35570;48.218;16.326;2024-03-02T06:21:51;7.70;99.90
49679;DHT22;35570;48.218;16.326;2024-03-02T06:24:16;7.70;99.90
49679;DHT22;35570;48.218;16.326;2024-03-02T06:26:42;7.70;99.90
49679;DHT22;35570;48.218;16.326;2024-03-02T06:29:08;7.70;99.90
49679;DHT22;35570;48.218;16.326;2024-03-02T06:31:34;7.60;99.90
49679;DHT22;35570;48.218;16.326;2024-03-02T06:34:01;7.50;99.90
49679;DHT22;35570;48.218;16.326;2024-03-02T06:36:35;7.50;99.90
49679;DHT22;35570;48.218;16.326;2024-03-02T06:39:20;7.40;99.90
49679;DHT22;35570;48.218;16.326;2024-03-02T06:44:56;7.30;99.90
49679;DHT22;35570;48.218;16.326;2024-03-02T06:51:02;7.20;99.90
49679;DHT22;35570;48.218;16.326;2024-03-02T06:53:54;7.20;99.90
49679;DHT22;35570;48.218;16.326;2024-03-02T06:56:37;7.10;99.90
49679;DHT22;35570;48.218;16.326;2024-03-02T06:59:11;7.20;99.90
49679;DHT22;35570;48.218;16.326;2024-03-02T07:05:01;7.20;99.90
49679;DHT22;35570;48.218;16.326;2024-03-02T07:10:48;7.30;99.90
49679;DHT22;35570;48.218;16.326;2024-03-02T07:16:37;7.30;99.90
49679;DHT22;35570;48.218;16.326;2024-03-02T07:19:16;7.40;99.90
49679;DHT22;35570;48.218;16.326;2024-03-02T07:22:00;7.40;99.90
49679;DHT22;35570;48.218;16.326;2024-03-02T07:24:28;7.40;99.90
49679;DHT22;35570;48.218;16.326;2024-03-02T07:30:17;7.50;99.90
49679;DHT22;35570;48.218;16.326;2024-03-02T07:32:42;7.50;99.90
49679;DHT22;35570;48.218;16.326;2024-03-02T07:35:17;7.50;99.90
49679;DHT22;35570;48.218;16.326;2024-03-02T07:37:44;7.50;99.90
49679;DHT22;35570;48.218;16.326;2024-03-02T07:40:11;7.60;99.90
49679;DHT22;35570;48.218;16.326;2024-03-02T07:42:40;7.60;99.90
49679;DHT22;35570;48.218;16.326;2024-03-02T07:45:07;7.60;99.90
49679;DHT22;35570;48.218;16.326;2024-03-02T07:47:34;7.60;99.90
49679;DHT22;35570;48.218;16.326;2024-03-02T07:50:10;7.60;99.90
49679;DHT22;35570;48.218;16.326;2024-03-02T07:52:36;7.60;99.90
49679;DHT22;35570;48.218;16.326;2024-03-02T07:55:01;7.80;99.90
49679;DHT22;35570;48.218;16.326;2024-03-02T07:57:40;7.90;99.90
49679;DHT22;35570;48.218;16.326;2024-03-02T08:00:23;7.90;99.90
49679;DHT22;35570;48.218;16.326;2024-03-02T08:02:52;8.00;99.90
49679;DHT22;35570;48.218;16.326;2024-03-02T08:05:20;8.00;99.90
49679;DHT22;35570;48.218;16.326;2024-03-02T08:08:17;7.90;99.90
49679;DHT22;35570;48.218;16.326;2024-03-02T08:10:44;7.80;99.90
49679;DHT22;35570;48.218;16.326;2024-03-02T08:13:14;7.80;99.90
49679;DHT22;35570;48.218;16.326;2024-03-02T08:15:39;7.90;99.90
49679;DHT22;35570;48.218;16.326;2024-03-02T08:18:06;8.00;99.90
49679;DHT22;35570;48.218;16.326;2024-03-02T08:20:32;8.10;99.90
49679;DHT22;35570;48.218;16.326;2024-03-02T08:23:13;8.30;99.90
49679;DHT22;35570;48.218;16.326;2024-03-02T08:25:39;8.30;99.90
49679;DHT22;35570;48.218;16.326;2024-03-02T08:28:05;8.40;99.90
49679;DHT22;35570;48.218;16.326;2024-03-02T08:30:41;8.40;99.90
49679;DHT22;35570;48.218;16.326;2024-03-02T08:33:07;8.50;99.90
49679;DHT22;35570;48.218;16.326;2024-03-02T08:35:34;8.60;99.90
49679;DHT22;35570;48.218;16.326;2024-03-02T08:38:04;8.60;99.90
49679;DHT22;35570;48.218;16.326;2024-03-02T08:40:30;8.60;99.90
49679;DHT22;35570;48.218;16.326;2024-03-02T08:42:56;8.60;99.90
49679;DHT22;35570;48.218;16.326;2024-03-02T08:45:24;8.50;99.90
49679;DHT22;35570;48.218;16.326;2024-03-02T08:47:54;8.40;99.90
49679;DHT22;35570;48.218;16.326;2024-03-02T08:50:19;8.40;99.90
49679;DHT22;35570;48.218;16.326;2024-03-02T08:52:45;8.60;99.90
49679;DHT22;35570;48.218;16.326;2024-03-02T08:55:10;8.60;99.90
49679;DHT22;35570;48.218;16.326;2024-03-02T08:57:37;8.50;99.90
49679;DHT22;35570;48.218;16.326;2024-03-02T09:00:04;8.60;99.90
49679;DHT22;35570;48.218;16.326;2024-03-02T09:02:31;8.60;99.90
49679;DHT22;35570;48.218;16.326;2024-03-02T09:04:57;8.70;99.90
49679;DHT22;35570;48.218;16.326;2024-03-02T09:07:29;8.70;99.90
49679;DHT22;35570;48.218;16.326;2024-03-02T09:09:55;8.80;99.90
49679;DHT22;35570;48.218;16.326;2024-03-02T09:12:21;8.90;99.90
49679;DHT22;35570;48.218;16.326;2024-03-02T09:14:47;9.00;99.90
49679;DHT22;35570;48.218;16.326;2024-03-02T09:17:13;9.20;99.90
49679;DHT22;35570;48.218;16.326;2024-03-02T09:19:43;9.20;99.90
49679;DHT22;35570;48.218;16.326;2024-03-02T09:22:08;9.20;99.90
49679;DHT22;35570;48.218;16.326;2024-03-02T09:24:36;9.20;99.90
49679;DHT22;35570;48.218;16.326;2024-03-02T09:27:01;9.30;99.90
49679;DHT22;35570;48.218;16.326;2024-03-02T09:32:31;9.50;99.90
49679;DHT22;35570;48.218;16.326;2024-03-02T09:35:02;9.60;99.90
49679;DHT22;35570;48.218;16.326;2024-03-02T09:37:29;9.70;99.90
49679;DHT22;35570;48.218;16.326;2024-03-02T09:40:33;9.70;99.90
49679;DHT22;35570;48.218;16.326;2024-03-02T09:43:01;9.80;99.90
49679;DHT22;35570;48.218;16.326;2024-03-02T09:45:27;9.90;99.90
49679;DHT22;35570;48.218;16.326;2024-03-02T09:47:53;9.90;99.90
49679;DHT22;35570;48.218;16.326;2024-03-02T09:50:19;10.00;99.90
49679;DHT22;35570;48.218;16.326;2024-03-02T09:52:48;10.10;99.90
49679;DHT22;35570;48.218;16.326;2024-03-02T09:55:15;10.10;99.90
49679;DHT22;35570;48.218;16.326;2024-03-02T09:57:45;10.30;99.90
49679;DHT22;35570;48.218;16.326;2024-03-02T10:00:12;10.40;99.90
49679;DHT22;35570;48.218;16.326;2024-03-02T10:02:42;10.60;99.90
49679;DHT22;35570;48.218;16.326;2024-03-02T10:05:11;10.70;99.90
49679;DHT22;35570;48.218;16.326;2024-03-02T10:07:38;10.80;99.90
49679;DHT22;35570;48.218;16.326;2024-03-02T10:10:14;10.90;99.90
49679;DHT22;35570;48.218;16.326;2024-03-02T10:12:42;10.90;99.90
49679;DHT22;35570;48.218;16.326;2024-03-02T10:15:08;11.00;99.90
49679;DHT22;35570;48.218;16.326;2024-03-02T10:17:35;11.10;99.90
49679;DHT22;35570;48.218;16.326;2024-03-02T10:20:21;11.20;99.90
49679;DHT22;35570;48.218;16.326;2024-03-02T10:22:47;11.20;99.90
49679;DHT22;35570;48.218;16.326;2024-03-02T10:25:28;11.20;99.90
49679;DHT22;35570;48.218;16.326;2024-03-02T10:27:59;11.30;99.90
49679;DHT22;35570;48.218;16.326;2024-03-02T10:30:37;11.40;99.90
49679;DHT22;35570;48.218;16.326;2024-03-02T10:33:05;11.30;99.90
49679;DHT22;35570;48.218;16.326;2024-03-02T10:35:36;11.30;99.90
49679;DHT22;35570;48.218;16.326;2024-03-02T10:38:05;11.30;99.90
49679;DHT22;35570;48.218;16.326;2024-03-02T10:40:34;11.20;99.90
49679;DHT22;35570;48.218;16.326;2024-03-02T10:43:01;11.10;99.90
49679;DHT22;35570;48.218;16.326;2024-03-02T10:45:29;11.10;99.90
49679;DHT22;35570;48.218;16.326;2024-03-02T10:48:01;11.00;99.90
49679;DHT22;35570;48.218;16.326;2024-03-02T10:50:46;10.90;99.90
49679;DHT22;35570;48.218;16.326;2024-03-02T10:53:13;10.80;99.90
49679;DHT22;35570;48.218;16.326;2024-03-02T10:55:58;10.90;99.90
49679;DHT22;35570;48.218;16.326;2024-03-02T10:58:32;11.00;99.90
49679;DHT22;35570;48.218;16.326;2024-03-02T11:01:03;11.10;99.90
49679;DHT22;35570;48.218;16.326;2024-03-02T11:03:47;11.30;99.90
49679;DHT22;35570;48.218;16.326;2024-03-02T11:06:19;11.40;99.90
49679;DHT22;35570;48.218;16.326;2024-03-02T11:09:05;11.40;99.90
49679;DHT22;35570;48.218;16.326;2024-03-02T11:11:43;11.50;99.90
49679;DHT22;35570;48.218;16.326;2024-03-02T11:14:14;11.60;99.90
49679;DHT22;35570;48.218;16.326;2024-03-02T11:16:42;11.50;99.90
49679;DHT22;35570;48.218;16.326;2024-03-02T11:19:15;11.50;99.90
49679;DHT22;35570;48.218;16.326;2024-03-02T11:21:50;11.50;99.90
49679;DHT22;35570;48.218;16.326;2024-03-02T11:32:13;11.90;99.90
49679;DHT22;35570;48.218;16.326;2024-03-02T11:34:41;11.90;99.90
49679;DHT22;35570;48.218;16.326;2024-03-02T11:37:13;12.00;99.90
49679;DHT22;35570;48.218;16.326;2024-03-02T11:39:46;12.20;99.90
49679;DHT22;35570;48.218;16.326;2024-03-02T11:42:13;12.30;99.90
49679;DHT22;35570;48.218;16.326;2024-03-02T11:44:46;12.30;99.90
49679;DHT22;35570;48.218;16.326;2024-03-02T11:47:14;12.30;99.90
49679;DHT22;35570;48.218;16.326;2024-03-02T11:49:50;12.40;99.90
49679;DHT22;35570;48.218;16.326;2024-03-02T11:52:20;12.40;99.90
49679;DHT22;35570;48.218;16.326;2024-03-02T11:54:48;12.30;99.90
49679;DHT22;35570;48.218;16.326;2024-03-02T11:57:19;12.20;99.90
49679;DHT22;35570;48.218;16.326;2024-03-02T11:59:47;12.10;99.90
49679;DHT22;35570;48.218;16.326;2024-03-02T12:02:20;12.10;99.90
49679;DHT22;35570;48.218;16.326;2024-03-02T12:04:47;12.00;99.90
49679;DHT22;35570;48.218;16.326;2024-03-02T12:07:23;11.90;99.90
49679;DHT22;35570;48.218;16.326;2024-03-02T12:10:00;11.80;99.90
49679;DHT22;35570;48.218;16.326;2024-03-02T12:12:26;11.80;99.90
49679;DHT22;35570;48.218;16.326;2024-03-02T12:14:53;11.90;99.90
49679;DHT22;35570;48.218;16.326;2024-03-02T12:17:21;11.90;99.90
49679;DHT22;35570;48.218;16.326;2024-03-02T12:19:47;12.00;99.90
49679;DHT22;35570;48.218;16.326;2024-03-02T12:22:14;12.10;99.90
49679;DHT22;35570;48.218;16.326;2024-03-02T12:24:44;12.20;99.90
49679;DHT22;35570;48.218;16.326;2024-03-02T12:27:16;12.20;99.90
49679;DHT22;35570;48.218;16.326;2024-03-02T12:29:41;12.20;99.90
49679;DHT22;35570;48.218;16.326;2024-03-02T12:32:14;12.10;99.90
49679;DHT22;35570;48.218;16.326;2024-03-02T12:34:42;12.10;99.90
49679;DHT22;35570;48.218;16.326;2024-03-02T12:37:12;12.10;99.90
49679;DHT22;35570;48.218;16.326;2024-03-02T12:39:38;12.10;99.90
49679;DHT22;35570;48.218;16.326;2024-03-02T12:42:05;12.20;99.90
49679;DHT22;35570;48.218;16.326;2024-03-02T12:44:37;12.20;99.90
49679;DHT22;35570;48.218;16.326;2024-03-02T12:47:04;12.40;99.90
49679;DHT22;35570;48.218;16.326;2024-03-02T12:49:33;12.60;99.90
49679;DHT22;35570;48.218;16.326;2024-03-02T12:52:00;12.70;99.90
49679;DHT22;35570;48.218;16.326;2024-03-02T12:57:08;12.80;99.90
49679;DHT22;35570;48.218;16.326;2024-03-02T12:59:45;13.00;99.90
49679;DHT22;35570;48.218;16.326;2024-03-02T13:02:17;13.00;99.90
49679;DHT22;35570;48.218;16.326;2024-03-02T13:05:02;13.00;99.90
49679;DHT22;35570;48.218;16.326;2024-03-02T13:07:28;13.00;99.90
49679;DHT22;35570;48.218;16.326;2024-03-02T13:09:55;13.10;99.90
49679;DHT22;35570;48.218;16.326;2024-03-02T13:12:24;13.20;99.90
49679;DHT22;35570;48.218;16.326;2024-03-02T13:14:51;13.10;99.90
49679;DHT22;35570;48.218;16.326;2024-03-02T13:17:21;13.10;99.90
49679;DHT22;35570;48.218;16.326;2024-03-02T13:19:58;13.00;99.90
49679;DHT22;35570;48.218;16.326;2024-03-02T13:22:30;13.00;99.90
49679;DHT22;35570;48.218;16.326;2024-03-02T13:24:58;13.00;99.90
49679;DHT22;35570;48.218;16.326;2024-03-02T13:27:25;12.90;99.90
49679;DHT22;35570;48.218;16.326;2024-03-02T13:29:55;12.80;99.90
49679;DHT22;35570;48.218;16.326;2024-03-02T13:32:21;12.80;99.90
49679;DHT22;35570;48.218;16.326;2024-03-02T13:34:53;12.70;99.90
49679;DHT22;35570;48.218;16.326;2024-03-02T13:37:20;12.70;99.90
49679;DHT22;35570;48.218;16.326;2024-03-02T13:39:46;12.70;99.90
49679;DHT22;35570;48.218;16.326;2024-03-02T13:42:14;12.70;99.90
49679;DHT22;35570;48.218;16.326;2024-03-02T13:44:44;12.70;99.90
49679;DHT22;35570;48.218;16.326;2024-03-02T13:47:30;12.70;99.90
49679;DHT22;35570;48.218;16.326;2024-03-02T13:50:01;12.60;99.90
49679;DHT22;35570;48.218;16.326;2024-03-02T13:52:28;12.60;99.90
49679;DHT22;35570;48.218;16.326;2024-03-02T13:54:59;12.60;99.90
49679;DHT22;35570;48.218;16.326;2024-03-02T13:57:26;12.50;99.90
49679;DHT22;35570;48.218;16.326;2024-03-02T13:59:54;12.50;99.90
49679;DHT22;35570;48.218;16.326;2024-03-02T14:02:28;12.50;99.90
49679;DHT22;35570;48.218;16.326;2024-03-02T14:04:54;12.60;99.90
49679;DHT22;35570;48.218;16.326;2024-03-02T14:07:20;12.60;99.90
49679;DHT22;35570;48.218;16.326;2024-03-02T14:09:46;12.70;99.90
49679;DHT22;35570;48.218;16.326;2024-03-02T14:12:20;12.80;99.90
49679;DHT22;35570;48.218;16.326;2024-03-02T14:14:46;12.80;99.90
49679;DHT22;35570;48.218;16.326;2024-03-02T14:17:11;12.80;99.90
49679;DHT22;35570;48.218;16.326;2024-03-02T14:19:46;12.80;99.90
49679;DHT22;35570;48.218;16.326;2024-03-02T14:22:31;12.80;99.90
49679;DHT22;35570;48.218;16.326;2024-03-02T14:24:56;12.90;99.90
49679;DHT22;35570;48.218;16.326;2024-03-02T14:27:24;12.90;99.90
49679;DHT22;35570;48.218;16.326;2024-03-02T14:29:58;12.80;99.90
49679;DHT22;35570;48.218;16.326;2024-03-02T14:32:32;12.80;99.90
49679;DHT22;35570;48.218;16.326;2024-03-02T14:34:58;12.80;99.90
49679;DHT22;35570;48.218;16.326;2024-03-02T14:37:23;12.70;99.90
49679;DHT22;35570;48.218;16.326;2024-03-02T14:39:49;12.70;99.90
49679;DHT22;35570;48.218;16.326;2024-03-02T14:42:17;12.60;99.90
49679;DHT22;35570;48.218;16.326;2024-03-02T14:44:43;12.60;99.90
49679;DHT22;35570;48.218;16.326;2024-03-02T14:47:09;12.60;99.90
49679;DHT22;35570;48.218;16.326;2024-03-02T14:49:35;12.40;99.90
49679;DHT22;35570;48.218;16.326;2024-03-02T14:52:20;12.30;99.90
49679;DHT22;35570;48.218;16.326;2024-03-02T14:54:52;12.30;99.90
49679;DHT22;35570;48.218;16.326;2024-03-02T14:57:22;12.20;99.90
49679;DHT22;35570;48.218;16.326;2024-03-02T14:59:53;12.10;99.90
49679;DHT22;35570;48.218;16.326;2024-03-02T15:02:26;12.00;99.90
49679;DHT22;35570;48.218;16.326;2024-03-02T15:04:54;11.90;99.90
49679;DHT22;35570;48.218;16.326;2024-03-02T15:07:21;11.90;99.90
49679;DHT22;35570;48.218;16.326;2024-03-02T15:09:48;11.80;99.90
49679;DHT22;35570;48.218;16.326;2024-03-02T15:12:20;11.70;99.90
49679;DHT22;35570;48.218;16.326;2024-03-02T15:15:05;11.60;99.90
49679;DHT22;35570;48.218;16.326;2024-03-02T15:17:32;11.60;99.90
49679;DHT22;35570;48.218;16.326;2024-03-02T15:19:58;11.60;99.90
49679;DHT22;35570;48.218;16.326;2024-03-02T15:22:41;11.60;99.90
49679;DHT22;35570;48.218;16.326;2024-03-02T15:25:09;11.60;99.90
49679;DHT22;35570;48.218;16.326;2024-03-02T15:27:37;11.60;99.90
49679;DHT22;35570;48.218;16.326;2024-03-02T15:30:15;11.60;99.90
49679;DHT22;35570;48.218;16.326;2024-03-02T15:32:40;11.50;99.90
49679;DHT22;35570;48.218;16.326;2024-03-02T15:35:06;11.50;99.90
49679;DHT22;35570;48.218;16.326;2024-03-02T15:37:47;11.50;99.90
49679;DHT22;35570;48.218;16.326;2024-03-02T15:40:19;11.50;99.90
49679;DHT22;35570;48.218;16.326;2024-03-02T15:42:47;11.40;99.90
49679;DHT22;35570;48.218;16.326;2024-03-02T15:45:18;11.40;99.90
49679;DHT22;35570;48.218;16.326;2024-03-02T15:48:03;11.30;99.90
49679;DHT22;35570;48.218;16.326;2024-03-02T15:50:29;11.30;99.90
49679;DHT22;35570;48.218;16.326;2024-03-02T15:53:00;11.30;99.90
49679;DHT22;35570;48.218;16.326;2024-03-02T15:55:39;11.20;99.90
49679;DHT22;35570;48.218;16.326;2024-03-02T15:58:11;11.20;99.90
49679;DHT22;35570;48.218;16.326;2024-03-02T16:00:37;11.30;99.90
49679;DHT22;35570;48.218;16.326;2024-03-02T16:03:12;11.20;99.90
49679;DHT22;35570;48.218;16.326;2024-03-02T16:05:44;11.20;99.90
49679;DHT22;35570;48.218;16.326;2024-03-02T16:08:15;11.30;99.90
49679;DHT22;35570;48.218;16.326;2024-03-02T16:10:45;11.20;99.90
49679;DHT22;35570;48.218;16.326;2024-03-02T16:13:19;11.20;99.90
49679;DHT22;35570;48.218;16.326;2024-03-02T16:15:49;11.20;99.90
49679;DHT22;35570;48.218;16.326;2024-03-02T16:18:14;11.20;99.90
49679;DHT22;35570;48.218;16.326;2024-03-02T16:20:49;11.20;99.90
49679;DHT22;35570;48.218;16.326;2024-03-02T16:23:19;11.10;99.90
49679;DHT22;35570;48.218;16.326;2024-03-02T16:25:50;11.10;99.90
49679;DHT22;35570;48.218;16.326;2024-03-02T16:28:27;11.10;99.90
49679;DHT22;35570;48.218;16.326;2024-03-02T16:31:02;11.00;99.90
49679;DHT22;35570;48.218;16.326;2024-03-02T16:33:34;11.10;99.90
49679;DHT22;35570;48.218;16.326;2024-03-02T16:36:00;11.10;99.90
49679;DHT22;35570;48.218;16.326;2024-03-02T16:38:31;11.00;99.90
49679;DHT22;35570;48.218;16.326;2024-03-02T16:40:57;10.90;99.90
49679;DHT22;35570;48.218;16.326;2024-03-02T16:43:25;10.90;99.90
49679;DHT22;35570;48.218;16.326;2024-03-02T16:45:50;10.90;99.90
49679;DHT22;35570;48.218;16.326;2024-03-02T16:48:16;10.90;99.90
49679;DHT22;35570;48.218;16.326;2024-03-02T16:51:01;10.80;99.90
49679;DHT22;35570;48.218;16.326;2024-03-02T16:53:28;10.80;99.90
49679;DHT22;35570;48.218;16.326;2024-03-02T16:56:01;10.80;99.90
49679;DHT22;35570;48.218;16.326;2024-03-02T16:58:38;10.80;99.90
49679;DHT22;35570;48.218;16.326;2024-03-02T17:01:04;10.80;99.90
49679;DHT22;35570;48.218;16.326;2024-03-02T17:03:29;10.80;99.90
49679;DHT22;35570;48.218;16.326;2024-03-02T17:06:14;10.70;99.90